Time;durP1;ratioP1;P1;durP2;ratioP2;P2;SDS_P1;SDS_P2;PMS_P1;PMS_P2;Temp;Humidity;BMP_temperature;BMP_pressure;BME280_temperature;BME280_humidity;BME280_pressure;Samples;Min_cycle;Max_cycle;Signal;HPM_P1;HPM_P2
2023/05/15 00:01:16;;;;;;;4.43;2.87;;;11.70;97.30;;;;;;5030661;28;20518;-87
2023/05/15 00:03:42;;;;;;;2.90;2.70;;;11.70;97.30;;;;;;5030501;28;20168;-89
2023/05/15 00:06:07;;;;;;;2.33;1.70;;;11.60;97.30;;;;;;5030538;28;20196;-88
2023/05/15 00:08:33;;;;;;;2.93;2.50;;;11.60;97.30;;;;;;5026852;28;20757;-87
2023/05/15 00:10:58;;;;;;;2.90;1.90;;;11.50;97.30;;;;;;5032161;28;20180;-88
2023/05/15 00:13:24;;;;;;;6.73;2.03;;;11.50;97.30;;;;;;5033363;28;20573;-85
2023/05/15 00:15:49;;;;;;;3.90;2.43;;;11.40;97.30;;;;;;5035743;28;20233;-85
2023/05/15 00:18:15;;;;;;;12.80;3.50;;;11.40;97.30;;;;;;5033540;28;20752;-86
2023/05/15 00:20:40;;;;;;;2.40;2.20;;;11.30;97.30;;;;;;5035314;28;20602;-85
2023/05/15 00:23:06;;;;;;;3.40;1.83;;;11.30;97.30;;;;;;5037888;28;20188;-84
2023/05/15 00:25:31;;;;;;;4.00;3.80;;;11.20;97.30;;;;;;5039554;28;20187;-85
2023/05/15 00:27:57;;;;;;;5.07;3.57;;;11.20;97.30;;;;;;5034894;28;20823;-85
2023/05/15 00:30:22;;;;;;;2.97;2.50;;;11.20;97.30;;;;;;5034433;28;20262;-87
2023/05/15 00:32:48;;;;;;;2.37;2.27;;;11.20;97.30;;;;;;5035614;28;20194;-85
2023/05/15 00:35:13;;;;;;;8.70;4.87;;;11.20;97.30;;;;;;5034836;28;20187;-85
2023/05/15 00:37:39;;;;;;;2.40;2.20;;;11.20;97.30;;;;;;5034838;28;20207;-89
2023/05/15 00:40:06;;;;;;;4.00;2.70;;;11.20;97.30;;;;;;5035902;28;20558;-86
2023/05/15 00:42:32;;;;;;;4.63;3.30;;;11.20;97.30;;;;;;5037082;28;20672;-85
2023/05/15 00:45:00;;;;;;;4.13;2.83;;;11.10;97.30;;;;;;5036689;28;20520;-86
2023/05/15 00:47:26;;;;;;;2.60;2.40;;;11.10;97.30;;;;;;5049043;28;20701;-86
2023/05/15 00:49:52;;;;;;;4.10;3.90;;;11.00;97.30;;;;;;5041170;28;21016;-85
2023/05/15 00:52:19;;;;;;;2.00;1.90;;;11.00;97.30;;;;;;5033869;28;20529;-87
2023/05/15 00:54:44;;;;;;;3.03;1.87;;;10.90;97.30;;;;;;5033869;28;20264;-85
2023/05/15 00:57:10;;;;;;;3.50;2.80;;;10.90;97.30;;;;;;5031083;28;20520;-85
2023/05/15 00:59:39;;;;;;;2.27;2.07;;;10.90;97.30;;;;;;5036995;28;20535;-85
2023/05/15 01:02:04;;;;;;;2.47;2.27;;;10.90;97.30;;;;;;5040289;28;20258;-85
2023/05/15 01:04:30;;;;;;;1.93;1.83;;;10.80;97.30;;;;;;5036139;28;20560;-85
2023/05/15 01:06:55;;;;;;;3.10;2.60;;;10.80;97.30;;;;;;5036432;28;20200;-85
2023/05/15 01:09:26;;;;;;;3.97;2.60;;;10.80;97.30;;;;;;5035376;28;20180;-85
2023/05/15 01:11:53;;;;;;;3.00;2.13;;;10.70;97.30;;;;;;5031708;28;20186;-85
2023/05/15 01:14:19;;;;;;;2.80;2.60;;;10.70;97.30;;;;;;5034009;28;20437;-85
2023/05/15 01:16:45;;;;;;;2.57;2.37;;;10.70;97.30;;;;;;5033896;28;20482;-85
2023/05/15 01:19:10;;;;;;;2.20;2.00;;;10.70;97.30;;;;;;5032911;28;20178;-85
2023/05/15 01:21:36;;;;;;;4.30;3.33;;;10.60;97.30;;;;;;5031784;28;20263;-85
2023/05/15 01:24:11;;;;;;;2.20;2.03;;;10.60;97.30;;;;;;5030822;28;20164;-87
2023/05/15 01:27:14;;;;;;;1.83;1.80;;;10.60;97.30;;;;;;5044489;28;20705;-87
2023/05/15 01:30:03;;;;;;;2.53;2.33;;;10.60;97.30;;;;;;5033459;28;20414;-85
2023/05/15 01:32:49;;;;;;;2.07;1.93;;;10.60;97.30;;;;;;5033343;28;20559;-87
2023/05/15 01:35:34;;;;;;;4.67;2.73;;;10.50;97.30;;;;;;5032359;28;20418;-85
2023/05/15 01:38:09;;;;;;;2.17;2.03;;;10.50;97.30;;;;;;5032482;28;20438;-87
2023/05/15 01:40:35;;;;;;;6.40;3.20;;;10.50;97.30;;;;;;5033400;28;20552;-85
2023/05/15 01:43:06;;;;;;;3.50;3.30;;;10.50;97.30;;;;;;5032986;28;20411;-85
2023/05/15 01:45:32;;;;;;;8.50;3.90;;;10.50;97.30;;;;;;5032463;28;20187;-87
2023/05/15 01:47:59;;;;;;;7.30;2.80;;;10.50;97.30;;;;;;5048479;28;20434;-85
2023/05/15 01:50:26;;;;;;;3.53;3.10;;;10.40;97.30;;;;;;5032185;28;20987;-85
2023/05/15 01:52:55;;;;;;;1.77;1.67;;;10.40;97.30;;;;;;5031885;28;20414;-85
2023/05/15 01:55:22;;;;;;;4.70;3.50;;;10.40;97.30;;;;;;5049763;28;20471;-85
2023/05/15 01:57:50;;;;;;;1.93;1.83;;;10.40;97.30;;;;;;5024736;28;20592;-86
2023/05/15 02:00:17;;;;;;;3.10;2.30;;;10.30;97.30;;;;;;5031661;28;20431;-85
2023/05/15 02:02:43;;;;;;;2.00;1.83;;;10.30;97.30;;;;;;5025704;28;20429;-85
2023/05/15 02:05:09;;;;;;;2.63;2.47;;;10.30;97.30;;;;;;5032284;28;20452;-85
2023/05/15 02:07:35;;;;;;;4.47;2.87;;;10.30;97.30;;;;;;5031762;28;20446;-85
2023/05/15 02:10:02;;;;;;;5.23;3.60;;;10.30;97.30;;;;;;5050744;28;20437;-85
2023/05/15 02:12:28;;;;;;;8.47;2.80;;;10.30;97.30;;;;;;5033040;28;20421;-85
2023/05/15 02:14:55;;;;;;;3.83;2.90;;;10.30;97.30;;;;;;5032024;28;20527;-86
2023/05/15 02:17:22;;;;;;;2.43;2.23;;;10.30;97.30;;;;;;5030196;28;20539;-85
2023/05/15 02:19:48;;;;;;;3.70;3.50;;;10.30;97.30;;;;;;5032348;28;20459;-86
2023/05/15 02:22:14;;;;;;;4.30;2.53;;;10.30;97.30;;;;;;5050839;28;20527;-85
2023/05/15 02:24:39;;;;;;;3.40;3.20;;;10.20;97.30;;;;;;5032676;28;20940;-86
2023/05/15 02:27:25;;;;;;;3.50;3.27;;;10.20;97.30;;;;;;5032837;28;20203;-85
2023/05/15 02:30:19;;;;;;;5.77;3.50;;;10.20;97.30;;;;;;5044896;28;20179;-87
2023/05/15 02:32:57;;;;;;;2.37;2.17;;;10.20;97.30;;;;;;5027294;28;20438;-87
2023/05/15 02:35:34;;;;;;;3.87;2.70;;;10.20;97.30;;;;;;5033005;28;20968;-85
2023/05/15 02:38:10;;;;;;;6.53;3.33;;;10.10;97.30;;;;;;5031233;28;20434;-85
2023/05/15 02:40:36;;;;;;;2.83;2.63;;;10.10;97.30;;;;;;5026327;28;20533;-85
2023/05/15 02:43:02;;;;;;;2.27;2.07;;;10.10;97.30;;;;;;5030061;28;20445;-85
2023/05/15 02:45:29;;;;;;;2.83;2.63;;;10.10;97.30;;;;;;5032956;28;20429;-85
2023/05/15 02:47:55;;;;;;;4.93;2.87;;;10.10;97.30;;;;;;5029930;28;20430;-85
2023/05/15 02:50:21;;;;;;;2.33;2.13;;;10.10;97.30;;;;;;5030972;28;20449;-86
2023/05/15 02:52:46;;;;;;;4.20;2.47;;;10.10;97.30;;;;;;5031884;28;20176;-85
2023/05/15 02:55:12;;;;;;;2.30;2.10;;;10.10;97.30;;;;;;5031640;28;20422;-85
2023/05/15 02:57:37;;;;;;;3.50;2.70;;;10.10;97.30;;;;;;5030024;28;20287;-85
2023/05/15 03:00:06;;;;;;;6.10;3.17;;;10.10;97.30;;;;;;5026918;28;20179;-87
2023/05/15 03:02:31;;;;;;;3.63;2.93;;;10.10;97.30;;;;;;5025950;28;20187;-87
2023/05/15 03:04:57;;;;;;;5.33;3.87;;;10.10;97.30;;;;;;5032430;28;20406;-88
2023/05/15 03:07:22;;;;;;;5.33;3.10;;;10.20;97.30;;;;;;5027843;28;20551;-85
2023/05/15 03:09:48;;;;;;;2.30;2.10;;;10.10;97.30;;;;;;5032861;28;20176;-87
2023/05/15 03:12:13;;;;;;;3.00;2.30;;;10.10;97.30;;;;;;5050120;28;20183;-86
2023/05/15 03:14:39;;;;;;;4.50;2.97;;;10.20;97.30;;;;;;5033702;28;20180;-86
2023/05/15 03:17:04;;;;;;;2.73;2.57;;;10.20;97.30;;;;;;5027623;28;20220;-85
2023/05/15 03:19:30;;;;;;;3.47;3.10;;;10.20;97.30;;;;;;5050477;28;20172;-85
2023/05/15 03:21:55;;;;;;;2.80;2.60;;;10.20;97.30;;;;;;5031462;28;20176;-85
2023/05/15 03:24:21;;;;;;;3.23;2.53;;;10.20;97.30;;;;;;5070289;23;20726;-80
2023/05/15 03:26:46;;;;;;;2.70;2.50;;;10.20;97.30;;;;;;4989706;28;20653;-83
2023/05/15 03:29:12;;;;;;;1.53;1.43;;;10.20;97.30;;;;;;4996311;28;20232;-83
2023/05/15 03:31:37;;;;;;;2.30;2.17;;;10.20;97.30;;;;;;4994501;28;20189;-82
2023/05/15 03:34:03;;;;;;;8.00;4.83;;;10.20;97.30;;;;;;4985203;28;20513;-86
2023/05/15 03:36:28;;;;;;;6.90;3.40;;;10.20;97.30;;;;;;4996460;28;20807;-83
2023/05/15 03:38:54;;;;;;;3.00;2.80;;;10.20;97.30;;;;;;4994128;28;20184;-88
2023/05/15 03:41:20;;;;;;;3.87;3.67;;;10.20;97.30;;;;;;4995010;28;20778;-83
2023/05/15 03:43:45;;;;;;;3.00;2.70;;;10.20;97.30;;;;;;4995184;28;20197;-86
2023/05/15 03:46:11;;;;;;;3.40;2.70;;;10.30;97.30;;;;;;5005159;28;20508;-85
2023/05/15 03:48:36;;;;;;;2.67;2.47;;;10.30;97.30;;;;;;4989678;28;20178;-84
2023/05/15 03:51:02;;;;;;;5.37;3.07;;;10.30;97.30;;;;;;4997666;28;20265;-85
2023/05/15 03:53:28;;;;;;;14.53;2.50;;;10.30;97.30;;;;;;5014415;28;20197;-83
2023/05/15 03:55:54;;;;;;;4.43;2.60;;;10.30;97.30;;;;;;5014448;28;20502;-85
2023/05/15 03:58:20;;;;;;;3.80;3.50;;;10.30;97.30;;;;;;4986130;28;20457;-83
2023/05/15 04:00:45;;;;;;;4.73;3.27;;;10.30;97.30;;;;;;5005824;28;20832;-83
2023/05/15 04:03:11;;;;;;;3.80;2.40;;;10.30;97.30;;;;;;4996144;28;20200;-86
2023/05/15 04:05:36;;;;;;;1.83;1.73;;;10.40;97.30;;;;;;5004670;28;20667;-81
2023/05/15 04:08:02;;;;;;;4.23;3.57;;;10.40;97.30;;;;;;4992994;28;20239;-84
2023/05/15 04:10:28;;;;;;;3.20;2.10;;;10.40;97.30;;;;;;4996425;28;20185;-86
2023/05/15 04:12:53;;;;;;;3.40;3.20;;;10.50;97.30;;;;;;4997024;28;20613;-84
2023/05/15 04:15:20;;;;;;;5.77;3.53;;;10.50;97.30;;;;;;4995970;28;20416;-84
2023/05/15 04:17:47;;;;;;;4.00;3.10;;;10.60;97.30;;;;;;5010446;28;20169;-83
2023/05/15 04:20:14;;;;;;;6.60;3.87;;;10.60;97.30;;;;;;4998109;28;20962;-85
2023/05/15 04:22:41;;;;;;;5.90;4.53;;;10.70;97.30;;;;;;4997880;28;20458;-85
2023/05/15 04:25:08;;;;;;;7.83;3.50;;;10.70;97.30;;;;;;5014693;28;20465;-84
2023/05/15 04:27:34;;;;;;;7.30;4.10;;;10.70;97.30;;;;;;5013722;28;21201;-85
2023/05/15 04:30:00;;;;;;;4.40;3.97;;;10.70;97.30;;;;;;5014322;28;20412;-83
2023/05/15 04:32:26;;;;;;;6.53;3.60;;;10.80;97.30;;;;;;4989355;28;20425;-82
2023/05/15 04:34:52;;;;;;;7.83;4.47;;;10.80;97.30;;;;;;4996026;28;20455;-87
2023/05/15 04:37:17;;;;;;;4.30;3.43;;;10.90;97.30;;;;;;4994661;28;20197;-85
2023/05/15 04:39:43;;;;;;;2.80;2.60;;;10.90;97.30;;;;;;4983216;28;20181;-85
2023/05/15 04:42:08;;;;;;;3.37;2.90;;;10.90;97.30;;;;;;5010095;28;20184;-85
2023/05/15 04:44:34;;;;;;;3.80;3.47;;;11.00;97.30;;;;;;4994648;28;20296;-86
2023/05/15 04:46:59;;;;;;;5.97;3.67;;;11.00;97.30;;;;;;4985951;28;20178;-86
2023/05/15 04:49:25;;;;;;;6.20;4.87;;;11.10;97.30;;;;;;4993623;28;20178;-88
2023/05/15 04:51:50;;;;;;;11.43;5.70;;;11.10;97.30;;;;;;4994065;28;20735;-82
2023/05/15 04:54:16;;;;;;;7.03;4.90;;;11.20;97.30;;;;;;4998841;28;20295;-86
2023/05/15 04:56:41;;;;;;;4.07;3.17;;;11.30;97.30;;;;;;4994346;28;20217;-83
2023/05/15 04:59:08;;;;;;;6.07;5.33;;;11.40;97.30;;;;;;4995111;28;20220;-87
2023/05/15 05:01:35;;;;;;;5.30;3.77;;;11.40;97.30;;;;;;5015589;28;20200;-84
2023/05/15 05:04:00;;;;;;;7.37;4.80;;;11.50;97.30;;;;;;4998308;28;20531;-86
2023/05/15 05:06:26;;;;;;;9.13;3.97;;;11.50;97.30;;;;;;5006604;28;20483;-85
2023/05/15 05:08:51;;;;;;;14.40;4.60;;;11.60;97.30;;;;;;5007880;28;20265;-86
2023/05/15 05:11:16;;;;;;;6.40;4.27;;;11.70;97.30;;;;;;5011873;28;20181;-88
2023/05/15 05:13:42;;;;;;;3.60;3.20;;;11.70;97.30;;;;;;5008259;28;20216;-82
2023/05/15 05:16:07;;;;;;;15.90;5.30;;;11.80;97.30;;;;;;4999353;28;20246;-83
2023/05/15 05:18:33;;;;;;;7.80;4.40;;;11.80;97.30;;;;;;5004394;28;20185;-84
2023/05/15 05:21:02;;;;;;;8.60;5.10;;;11.90;97.30;;;;;;4995211;28;20174;-88
2023/05/15 05:23:29;;;;;;;7.80;4.20;;;11.90;97.30;;;;;;4997555;28;20236;-82
2023/05/15 05:25:55;;;;;;;6.07;5.37;;;12.00;97.30;;;;;;4989991;28;20447;-84
2023/05/15 05:28:21;;;;;;;5.10;3.87;;;12.00;97.30;;;;;;4997510;28;20511;-85
2023/05/15 05:30:47;;;;;;;5.50;4.40;;;12.10;97.30;;;;;;5001387;28;20428;-84
2023/05/15 05:33:13;;;;;;;5.73;3.20;;;12.20;97.30;;;;;;4997922;28;20205;-84
2023/05/15 05:35:39;;;;;;;6.63;5.30;;;12.20;97.30;;;;;;5013514;28;20480;-83
2023/05/15 05:38:04;;;;;;;8.27;5.80;;;12.30;97.30;;;;;;4993374;28;20170;-83
2023/05/15 05:40:30;;;;;;;5.70;4.20;;;12.40;97.30;;;;;;5018530;28;20676;-81
2023/05/15 05:43:01;;;;;;;4.93;4.63;;;12.40;97.30;;;;;;5000771;28;20196;-82
2023/05/15 05:45:28;;;;;;;5.70;5.40;;;12.50;97.30;;;;;;5022078;28;20177;-87
2023/05/15 05:47:57;;;;;;;6.93;4.30;;;12.50;97.30;;;;;;5000030;28;20428;-86
2023/05/15 05:50:23;;;;;;;8.27;5.10;;;12.60;97.30;;;;;;5021172;28;20414;-87
2023/05/15 05:52:49;;;;;;;10.17;5.00;;;12.60;97.30;;;;;;5012559;28;20417;-86
2023/05/15 05:55:14;;;;;;;4.87;3.87;;;12.70;97.30;;;;;;4998202;28;20416;-87
2023/05/15 05:57:40;;;;;;;7.03;4.70;;;12.80;97.30;;;;;;5009061;28;20430;-84
2023/05/15 06:00:09;;;;;;;5.37;5.07;;;12.90;97.30;;;;;;5001494;28;20181;-85
2023/05/15 06:02:36;;;;;;;12.87;5.83;;;12.90;97.30;;;;;;5016381;28;20413;-81
2023/05/15 06:05:02;;;;;;;5.40;4.20;;;13.00;97.30;;;;;;4987985;28;20449;-84
2023/05/15 06:07:28;;;;;;;7.50;5.27;;;13.10;97.30;;;;;;4998829;28;20911;-86
2023/05/15 06:09:54;;;;;;;11.00;3.83;;;13.10;97.30;;;;;;4995552;28;20803;-84
2023/05/15 06:12:19;;;;;;;8.27;4.70;;;13.20;97.30;;;;;;5001567;28;20359;-83
2023/05/15 06:14:45;;;;;;;9.83;4.00;;;13.20;97.30;;;;;;4995836;28;20197;-83
2023/05/15 06:17:10;;;;;;;7.77;4.97;;;13.30;97.30;;;;;;4999522;28;20208;-86
2023/05/15 06:19:36;;;;;;;18.37;5.07;;;13.40;97.30;;;;;;4996269;28;21468;-85
2023/05/15 06:22:01;;;;;;;10.97;4.00;;;13.40;97.30;;;;;;5002407;28;20173;-86
2023/05/15 06:24:30;;;;;;;6.80;4.77;;;13.50;97.30;;;;;;4991969;28;20225;-87
2023/05/15 06:26:56;;;;;;;8.23;4.90;;;13.60;97.30;;;;;;4995908;28;20220;-83
2023/05/15 06:29:21;;;;;;;6.20;4.70;;;13.70;97.30;;;;;;4991250;28;20432;-87
2023/05/15 06:31:47;;;;;;;6.47;6.03;;;13.70;97.30;;;;;;5000159;28;20207;-85
2023/05/15 06:34:12;;;;;;;5.57;2.97;;;13.80;97.30;;;;;;5015602;28;20209;-84
2023/05/15 06:36:38;;;;;;;11.57;7.20;;;13.90;97.30;;;;;;4996606;28;20209;-88
2023/05/15 06:39:04;;;;;;;8.80;5.87;;;14.00;97.30;;;;;;4996618;28;20264;-83
2023/05/15 06:41:30;;;;;;;6.90;4.80;;;14.10;97.30;;;;;;5016709;28;20243;-86
2023/05/15 06:43:56;;;;;;;7.80;4.90;;;14.20;97.30;;;;;;4994263;28;20457;-86
2023/05/15 06:46:21;;;;;;;6.73;4.50;;;14.20;97.30;;;;;;4989287;28;20966;-87
2023/05/15 06:48:47;;;;;;;11.40;4.73;;;14.40;97.30;;;;;;5009673;28;20197;-85
2023/05/15 06:51:12;;;;;;;4.20;3.93;;;14.40;97.30;;;;;;5008021;28;20196;-85
2023/05/15 06:53:39;;;;;;;4.20;3.30;;;14.40;97.30;;;;;;5027941;28;20212;-82
2023/05/15 06:56:05;;;;;;;6.60;5.10;;;14.40;97.30;;;;;;4998868;28;20197;-84
2023/05/15 06:58:30;;;;;;;6.07;5.10;;;14.50;97.30;;;;;;4996650;28;20420;-87
2023/05/15 07:00:56;;;;;;;7.63;4.83;;;14.60;97.30;;;;;;4998142;28;20598;-87
2023/05/15 07:03:21;;;;;;;3.80;3.60;;;14.60;97.30;;;;;;4990489;28;20202;-87
2023/05/15 07:05:47;;;;;;;8.97;6.17;;;14.70;97.30;;;;;;4991987;28;20653;-86
2023/05/15 07:08:12;;;;;;;10.77;4.73;;;14.80;97.30;;;;;;4993373;28;20220;-87
2023/05/15 07:10:38;;;;;;;5.80;4.70;;;14.90;97.30;;;;;;5000142;28;20670;-87
2023/05/15 07:13:03;;;;;;;5.03;4.47;;;15.00;97.30;;;;;;4985159;28;20202;-87
2023/05/15 07:15:29;;;;;;;5.00;3.50;;;15.10;97.30;;;;;;4999224;28;20172;-87
2023/05/15 07:17:54;;;;;;;6.03;4.13;;;15.20;97.30;;;;;;4994234;28;20205;-87
2023/05/15 07:20:20;;;;;;;7.10;6.33;;;15.30;97.30;;;;;;4994942;28;20177;-86
2023/05/15 07:22:45;;;;;;;4.03;3.83;;;15.40;97.30;;;;;;4995315;28;20187;-87
2023/05/15 07:25:11;;;;;;;18.87;6.90;;;15.40;97.30;;;;;;4994861;28;20251;-88
2023/05/15 07:27:36;;;;;;;8.90;5.10;;;15.50;97.30;;;;;;4985005;28;20364;-88
2023/05/15 07:30:03;;;;;;;7.00;5.00;;;15.60;97.30;;;;;;5002791;28;20663;-87
2023/05/15 07:32:29;;;;;;;3.43;3.23;;;15.70;97.30;;;;;;4985205;28;20503;-88
2023/05/15 07:34:55;;;;;;;6.10;4.70;;;15.80;97.30;;;;;;4987398;28;20539;-88
2023/05/15 07:37:22;;;;;;;6.10;4.10;;;15.90;97.30;;;;;;4983948;28;20472;-88
2023/05/15 07:39:47;;;;;;;5.27;4.40;;;16.00;97.30;;;;;;4992261;28;20417;-87
2023/05/15 07:42:13;;;;;;;8.30;5.13;;;16.10;97.30;;;;;;4983303;28;20427;-87
2023/05/15 07:44:38;;;;;;;5.27;4.50;;;16.10;97.30;;;;;;4985035;28;20197;-88
2023/05/15 07:47:04;;;;;;;7.87;3.87;;;16.20;97.30;;;;;;4987695;28;20671;-90
2023/05/15 07:49:30;;;;;;;4.60;2.83;;;16.30;97.30;;;;;;4990788;28;20219;-87
2023/05/15 07:51:55;;;;;;;7.90;4.27;;;16.40;97.30;;;;;;4988247;28;20731;-86
2023/05/15 07:54:21;;;;;;;5.03;4.27;;;16.60;97.30;;;;;;4997660;28;20543;-86
2023/05/15 07:56:46;;;;;;;4.90;3.30;;;16.60;97.30;;;;;;4986807;28;20220;-87
2023/05/15 07:59:12;;;;;;;17.97;6.30;;;16.80;97.30;;;;;;5009738;28;20193;-87
2023/05/15 08:01:37;;;;;;;9.17;5.63;;;16.80;97.30;;;;;;5001763;28;20674;-87
2023/05/15 08:04:06;;;;;;;10.83;4.50;;;16.90;97.10;;;;;;5001100;28;20223;-86
2023/05/15 08:06:32;;;;;;;5.70;4.50;;;17.00;96.50;;;;;;5001233;28;20184;-86
2023/05/15 08:08:58;;;;;;;4.03;3.50;;;17.10;96.10;;;;;;4989238;28;20491;-86
2023/05/15 08:11:23;;;;;;;6.27;4.27;;;17.10;95.60;;;;;;4998700;28;20767;-86
2023/05/15 08:13:49;;;;;;;10.00;5.30;;;17.20;95.80;;;;;;5000552;28;20208;-86
2023/05/15 08:16:14;;;;;;;3.90;3.50;;;17.30;95.00;;;;;;4994123;28;20189;-86
2023/05/15 08:18:40;;;;;;;19.17;4.33;;;17.40;94.80;;;;;;4987349;28;20177;-89
2023/05/15 08:21:05;;;;;;;10.97;4.57;;;17.60;94.40;;;;;;4993178;28;20185;-88
2023/05/15 08:23:31;;;;;;;3.90;3.40;;;17.70;93.90;;;;;;4999889;28;20248;-87
2023/05/15 08:25:59;;;;;;;6.10;4.27;;;17.80;93.40;;;;;;4996241;28;20178;-88
2023/05/15 08:28:24;;;;;;;6.83;4.17;;;17.90;93.60;;;;;;4993505;28;20230;-86
2023/05/15 08:30:49;;;;;;;5.07;3.67;;;18.00;93.50;;;;;;5004247;28;20774;-87
2023/05/15 08:33:15;;;;;;;5.47;3.77;;;18.10;93.10;;;;;;5022547;28;20204;-87
2023/05/15 08:35:40;;;;;;;6.47;3.60;;;18.20;90.80;;;;;;4995433;28;20284;-87
2023/05/15 08:38:06;;;;;;;3.77;2.43;;;18.30;92.50;;;;;;4997100;28;20682;-87
2023/05/15 08:40:31;;;;;;;2.33;2.03;;;18.40;91.10;;;;;;5003213;28;20181;-87
2023/05/15 08:43:02;;;;;;;4.83;2.97;;;18.50;90.20;;;;;;5004834;28;20626;-86
2023/05/15 08:45:28;;;;;;;3.30;1.90;;;18.60;89.50;;;;;;4994833;28;20186;-88
2023/05/15 08:47:55;;;;;;;3.03;2.40;;;18.70;89.10;;;;;;5007232;28;20473;-89
2023/05/15 08:50:22;;;;;;;3.60;3.40;;;18.80;87.90;;;;;;4997078;28;20424;-87
2023/05/15 08:52:50;;;;;;;3.43;2.87;;;18.90;89.00;;;;;;5025282;28;20423;-86
2023/05/15 08:55:16;;;;;;;5.30;2.73;;;18.90;87.70;;;;;;5001659;28;20923;-87
2023/05/15 08:57:42;;;;;;;4.10;2.33;;;19.00;87.20;;;;;;5002792;28;20466;-86
2023/05/15 09:00:10;;;;;;;2.27;2.10;;;19.10;87.40;;;;;;5004418;28;20423;-89
2023/05/15 09:02:39;;;;;;;3.90;2.13;;;19.10;85.40;;;;;;5003755;28;20447;-87
2023/05/15 09:05:05;;;;;;;2.77;2.30;;;19.10;85.50;;;;;;4997257;28;20422;-90
2023/05/15 09:07:31;;;;;;;3.30;1.87;;;19.10;85.10;;;;;;5003578;28;20428;-87
2023/05/15 09:09:58;;;;;;;1.80;1.70;;;19.20;85.40;;;;;;5005743;28;20481;-88
2023/05/15 09:12:25;;;;;;;1.60;1.50;;;19.20;83.20;;;;;;5007897;28;20433;-88
2023/05/15 09:14:51;;;;;;;2.23;2.07;;;19.30;83.50;;;;;;4983513;28;20450;-86
2023/05/15 09:17:16;;;;;;;3.30;2.53;;;19.40;81.80;;;;;;5024808;28;20524;-88
2023/05/15 09:19:42;;;;;;;2.40;1.90;;;19.40;81.40;;;;;;5004367;28;20176;-87
2023/05/15 09:22:21;;;;;;;3.13;2.00;;;19.50;82.00;;;;;;5004105;28;20231;-87
2023/05/15 09:24:51;;;;;;;3.27;3.07;;;19.60;83.90;;;;;;5047039;23;21226;-88
2023/05/15 09:27:16;;;;;;;3.20;2.13;;;19.80;84.50;;;;;;5032345;28;21061;-87
2023/05/15 09:29:42;;;;;;;8.73;3.17;;;19.80;82.20;;;;;;5042350;28;20425;-89
2023/05/15 09:32:12;;;;;;;3.73;3.47;;;19.90;83.20;;;;;;5037336;28;20195;-90
2023/05/15 09:34:39;;;;;;;4.80;3.27;;;20.00;81.60;;;;;;5029851;28;20204;-89
2023/05/15 09:37:08;;;;;;;3.33;2.30;;;20.10;82.50;;;;;;5035518;28;20472;-91
2023/05/15 09:39:41;;;;;;;4.43;2.67;;;20.10;82.60;;;;;;5032452;28;20411;-88
2023/05/15 09:42:11;;;;;;;3.30;2.70;;;20.10;82.70;;;;;;5028929;28;20486;-88
2023/05/15 09:44:41;;;;;;;3.97;2.50;;;20.10;82.20;;;;;;5061204;28;20430;-89
2023/05/15 09:47:11;;;;;;;3.33;3.13;;;20.00;81.00;;;;;;5030807;28;20457;-89
2023/05/15 09:49:37;;;;;;;3.63;2.80;;;19.70;81.60;;;;;;5041707;28;20430;-88
2023/05/15 09:52:07;;;;;;;4.37;2.57;;;19.60;82.80;;;;;;5042639;28;20772;-89
2023/05/15 09:54:35;;;;;;;6.10;3.00;;;19.70;84.30;;;;;;5043555;28;20208;-88
2023/05/15 09:57:14;;;;;;;2.80;2.60;;;20.00;83.20;;;;;;5034047;28;20466;-89
2023/05/15 09:59:45;;;;;;;4.93;3.90;;;20.30;82.20;;;;;;5040665;28;20422;-88
2023/05/15 10:02:30;;;;;;;3.00;2.60;;;20.50;80.40;;;;;;5039011;28;20440;-90
2023/05/15 10:05:15;;;;;;;3.50;3.07;;;20.50;81.60;;;;;;5040143;28;20633;-89
2023/05/15 10:07:43;;;;;;;1.93;1.83;;;20.50;81.50;;;;;;5040932;28;20467;-89
2023/05/15 10:10:15;;;;;;;3.37;3.03;;;20.60;80.00;;;;;;5034938;28;20433;-89
2023/05/15 10:12:43;;;;;;;1.50;1.40;;;20.60;80.40;;;;;;5044994;28;20418;-88
2023/05/15 10:15:33;;;;;;;4.73;1.70;;;20.70;80.40;;;;;;5040710;28;20460;-88
2023/05/15 10:18:20;;;;;;;3.30;1.90;;;20.80;81.00;;;;;;5030472;28;20421;-89
2023/05/15 10:21:03;;;;;;;3.73;2.40;;;20.80;80.10;;;;;;5043033;28;20943;-88
2023/05/15 10:23:43;;;;;;;1.97;1.80;;;20.80;80.50;;;;;;5028645;28;20549;-89
2023/05/15 10:27:14;;;;;;;1.50;1.40;;;20.70;79.50;;;;;;5043320;28;20504;-89
2023/05/15 10:29:42;;;;;;;5.13;3.47;;;20.60;79.90;;;;;;4987228;28;20773;-90
2023/05/15 10:32:34;;;;;;;1.87;1.83;;;20.50;79.30;;;;;;5046395;28;20417;-89
2023/05/15 10:35:03;;;;;;;2.10;1.90;;;20.60;80.20;;;;;;5035204;28;20456;-89
2023/05/15 10:37:35;;;;;;;2.10;1.87;;;20.50;78.80;;;;;;5048847;28;20461;-88
2023/05/15 10:40:34;;;;;;;2.13;2.00;;;20.40;78.70;;;;;;5042704;28;20459;-88
2023/05/15 10:43:04;;;;;;;2.53;1.70;;;20.50;79.70;;;;;;5035137;28;20499;-89
2023/05/15 10:45:34;;;;;;;2.60;1.43;;;20.50;75.90;;;;;;5042722;28;20552;-90
2023/05/15 10:48:06;;;;;;;2.40;2.27;;;20.60;75.00;;;;;;5044141;28;20417;-89
2023/05/15 10:50:32;;;;;;;4.93;1.77;;;20.70;75.60;;;;;;5036823;28;20420;-89
2023/05/15 10:53:00;;;;;;;2.03;1.90;;;20.80;76.10;;;;;;5040611;28;20490;-89
2023/05/15 10:55:34;;;;;;;4.67;2.50;;;20.90;75.50;;;;;;5029139;28;20430;-89
2023/05/15 10:58:12;;;;;;;1.80;1.70;;;21.00;73.90;;;;;;5036742;28;20428;-90
2023/05/15 11:00:44;;;;;;;2.03;1.90;;;21.10;74.40;;;;;;5041895;28;20426;-88
2023/05/15 11:03:44;;;;;;;4.00;2.97;;;21.20;73.90;;;;;;5041781;28;20551;-88
2023/05/15 11:06:13;;;;;;;1.73;1.67;;;21.40;75.10;;;;;;5031817;28;20409;-88
2023/05/15 11:09:23;;;;;;;2.67;2.47;;;21.60;75.80;;;;;;5026725;28;20942;-88
2023/05/15 11:12:13;;;;;;;2.50;1.77;;;21.80;75.20;;;;;;5042130;28;20476;-90
2023/05/15 11:14:41;;;;;;;2.03;1.90;;;21.90;74.70;;;;;;5039993;28;20449;-89
2023/05/15 11:17:11;;;;;;;2.33;2.17;;;22.20;74.90;;;;;;5044655;28;20465;-88
2023/05/15 11:19:38;;;;;;;2.43;2.23;;;22.30;73.40;;;;;;5043229;28;20417;-88
2023/05/15 11:22:27;;;;;;;3.70;2.90;;;22.10;74.70;;;;;;5041246;28;20476;-90
2023/05/15 11:25:13;;;;;;;3.60;2.30;;;22.10;76.50;;;;;;5040500;28;20995;-89
2023/05/15 11:27:40;;;;;;;3.13;2.30;;;22.30;75.20;;;;;;5057695;28;20418;-90
2023/05/15 11:30:17;;;;;;;2.90;2.20;;;22.30;75.30;;;;;;5045226;28;20828;-89
2023/05/15 11:33:00;;;;;;;3.10;2.90;;;22.10;76.20;;;;;;5042053;28;20422;-89
2023/05/15 11:35:32;;;;;;;2.87;2.40;;;21.80;76.40;;;;;;5061648;28;20440;-90
2023/05/15 11:38:01;;;;;;;5.93;2.70;;;21.50;76.70;;;;;;5031568;28;20424;-88
2023/05/15 11:40:30;;;;;;;2.50;2.20;;;21.20;79.00;;;;;;5040598;28;20428;-89
2023/05/15 11:43:26;;;;;;;4.40;2.70;;;20.90;79.50;;;;;;5041059;28;20426;-88
2023/05/15 11:46:02;;;;;;;5.13;2.80;;;20.70;80.30;;;;;;5000372;28;20426;-88
2023/05/15 11:48:32;;;;;;;5.07;3.00;;;20.40;84.40;;;;;;5057376;28;20559;-86
2023/05/15 11:50:59;;;;;;;2.67;2.57;;;20.10;85.60;;;;;;5028055;28;20492;-86
2023/05/15 11:53:25;;;;;;;2.50;2.10;;;19.80;87.20;;;;;;5045067;28;20461;-86
2023/05/15 11:55:53;;;;;;;3.43;3.07;;;19.50;86.00;;;;;;5040710;28;20981;-87
2023/05/15 11:58:20;;;;;;;5.50;3.50;;;19.40;87.70;;;;;;5039101;28;20414;-87
2023/05/15 12:00:47;;;;;;;3.30;2.90;;;19.40;87.80;;;;;;5039312;28;20500;-86
2023/05/15 12:03:34;;;;;;;3.60;3.30;;;19.30;86.50;;;;;;5025606;28;20442;-87
2023/05/15 12:06:01;;;;;;;2.50;2.40;;;19.20;87.20;;;;;;5032500;28;20453;-88
2023/05/15 12:08:34;;;;;;;3.27;3.07;;;19.20;86.90;;;;;;5030982;28;20445;-87
2023/05/15 12:11:03;;;;;;;2.97;2.80;;;19.20;87.20;;;;;;5040294;28;20509;-89
2023/05/15 12:13:30;;;;;;;10.90;3.60;;;19.20;87.90;;;;;;5028722;28;20438;-89
2023/05/15 12:15:57;;;;;;;10.30;3.80;;;19.20;87.90;;;;;;5032033;28;21034;-87
2023/05/15 12:18:22;;;;;;;2.90;2.70;;;19.20;88.80;;;;;;5011263;28;20506;-89
2023/05/15 12:20:51;;;;;;;5.83;3.97;;;19.30;88.30;;;;;;5034581;28;20514;-87
2023/05/15 12:23:20;;;;;;;5.37;3.60;;;19.30;88.10;;;;;;5033863;28;20203;-88
2023/05/15 12:25:47;;;;;;;3.80;3.67;;;19.30;87.20;;;;;;5036120;28;20437;-90
2023/05/15 12:28:13;;;;;;;3.57;3.37;;;19.40;87.10;;;;;;5033423;28;20471;-88
2023/05/15 12:30:40;;;;;;;4.20;3.33;;;19.40;87.80;;;;;;5053842;28;20414;-88
2023/05/15 12:33:07;;;;;;;10.10;3.03;;;19.50;88.20;;;;;;5035146;28;20414;-88
2023/05/15 12:35:48;;;;;;;3.33;2.60;;;19.70;87.70;;;;;;5035634;28;20438;-88
2023/05/15 12:38:15;;;;;;;12.43;2.83;;;19.80;87.80;;;;;;5034456;28;20426;-89
2023/05/15 12:40:43;;;;;;;4.60;2.73;;;20.00;86.40;;;;;;5044089;28;20421;-88
2023/05/15 12:43:09;;;;;;;2.40;2.20;;;20.10;85.10;;;;;;5053528;28;20457;-88
2023/05/15 12:45:38;;;;;;;4.23;2.97;;;20.40;84.30;;;;;;5036187;28;20975;-88
2023/05/15 12:48:04;;;;;;;4.23;1.90;;;20.90;82.90;;;;;;5033207;28;20476;-89
2023/05/15 12:50:32;;;;;;;2.80;2.17;;;21.40;82.40;;;;;;5053777;28;20463;-89
2023/05/15 12:53:01;;;;;;;4.90;3.17;;;22.00;81.00;;;;;;5035223;28;20512;-88